createdAt,value
2022-08-10T00:01:00.637Z,99777.34
2022-08-10T00:06:05.818Z,99774.50
2022-08-10T00:11:15.188Z,99776.75
2022-08-10T00:16:21.861Z,99778.94
2022-08-10T00:21:27.220Z,99771.34
2022-08-10T00:27:52.570Z,99769.00
2022-08-10T00:32:00.647Z,99777.34
2022-08-10T00:37:05.630Z,99783.69
2022-08-10T00:42:14.759Z,99775.84
2022-08-10T00:47:35.839Z,99765.00
2022-08-10T00:52:42.071Z,99769.28
2022-08-10T00:57:55.236Z,99761.22
2022-08-10T01:03:00.745Z,99761.28
2022-08-10T01:08:23.625Z,99756.44
2022-08-10T01:13:36.584Z,99759.31
2022-08-10T01:18:50.540Z,99759.44
2022-08-10T01:24:25.080Z,99760.00
2022-08-10T01:29:56.852Z,99763.50
2022-08-10T01:35:10.372Z,99763.47
2022-08-10T01:40:18.343Z,99767.00
2022-08-10T01:45:28.678Z,99765.88
2022-08-10T01:50:59.531Z,99765.72
2022-08-10T01:56:06.476Z,99770.47
2022-08-10T02:01:18.949Z,99770.41
2022-08-10T02:06:25.928Z,99776.44
2022-08-10T02:12:05.572Z,99781.22
2022-08-10T02:16:59.712Z,99785.84
2022-08-10T02:22:35.271Z,99782.81
2022-08-10T02:27:32.473Z,99775.41
2022-08-10T02:32:41.913Z,99767.94
2022-08-10T02:38:04.805Z,99778.56
2022-08-10T02:45:29.521Z,99772.16
2022-08-10T02:48:49.227Z,99773.69
2022-08-10T02:53:59.943Z,99775.59
2022-08-10T02:59:10.148Z,99769.78
2022-08-10T03:04:55.117Z,99766.16
2022-08-10T03:09:50.482Z,99764.88
2022-08-10T03:14:57.056Z,99767.34
2022-08-10T03:20:38.083Z,99762.25
2022-08-10T03:25:32.479Z,99781.09
2022-08-10T03:30:38.334Z,99780.38
2022-08-10T03:36:43.365Z,99776.31
2022-08-10T03:41:16.408Z,99773.72
2022-08-10T03:46:25.113Z,99778.69
2022-08-10T03:51:33.824Z,99780.66
2022-08-10T03:56:40.830Z,99791.25
2022-08-10T04:02:43.558Z,99785.94
2022-08-10T04:07:14.890Z,99785.94
2022-08-10T04:12:20.187Z,99799.31
2022-08-10T04:18:03.975Z,99803.66
2022-08-10T04:22:59.029Z,99809.44
2022-08-10T04:28:05.871Z,99811.47
2022-08-10T04:33:13.573Z,99808.56
2022-08-10T04:38:22.272Z,99812.72
2022-08-10T04:43:29.733Z,99805.78
2022-08-10T04:48:43.325Z,99812.16
2022-08-10T04:54:06.392Z,99809.78
2022-08-10T04:59:13.924Z,99810.13
2022-08-10T05:04:34.593Z,99803.69
2022-08-10T05:10:01.226Z,99807.44
2022-08-10T05:15:10.946Z,99813.34
2022-08-10T05:20:16.151Z,99809.06
2022-08-10T05:25:23.852Z,99812.19
2022-08-10T05:30:28.992Z,99795.69
2022-08-10T05:35:57.697Z,99799.69
2022-08-10T05:41:03.215Z,99807.56
2022-08-10T05:46:17.399Z,99806.31
2022-08-10T05:51:27.634Z,99795.19
2022-08-10T05:56:53.809Z,99795.00
2022-08-10T06:02:33.779Z,99795.81
2022-08-10T06:07:30.072Z,99793.47
2022-08-10T06:12:55.179Z,99790.13
2022-08-10T06:18:02.911Z,99793.81
2022-08-10T06:23:09.766Z,99792.88
2022-08-10T06:28:21.895Z,99787.88
2022-08-10T06:33:31.258Z,99788.34
2022-08-10T06:38:38.802Z,99793.63
2022-08-10T06:43:55.467Z,99789.81
2022-08-10T06:49:03.170Z,99798.16
2022-08-10T06:54:14.622Z,99786.84
2022-08-10T06:59:24.917Z,99791.19
2022-08-10T07:04:34.546Z,99792.28
2022-08-10T07:09:43.327Z,99797.44
2022-08-10T07:14:53.504Z,99794.31
2022-08-10T07:20:01.356Z,99791.25
2022-08-10T07:25:12.165Z,99795.13
2022-08-10T07:30:20.194Z,99793.47
2022-08-10T07:35:28.376Z,99810.63
2022-08-10T07:40:37.424Z,99801.56
2022-08-10T07:45:45.366Z,99798.41
2022-08-10T07:50:51.359Z,99802.09
2022-08-10T07:56:01.883Z,99807.47
2022-08-10T08:01:20.751Z,99805.09
2022-08-10T08:06:26.357Z,99793.03
2022-08-10T08:11:39.953Z,99795.47
2022-08-10T08:16:56.527Z,99789.66
2022-08-10T08:24:10.073Z,99804.72
2022-08-10T08:27:39.823Z,99789.09
2022-08-10T08:32:54.416Z,99798.38
2022-08-10T08:38:30.471Z,99796.50
2022-08-10T08:43:38.473Z,99796.53
2022-08-10T08:49:09.641Z,99799.69
2022-08-10T08:54:35.112Z,99787.75
2022-08-10T09:00:01.864Z,99781.56
2022-08-10T09:05:26.183Z,99784.47
2022-08-10T09:10:42.497Z,99764.53
2022-08-10T09:16:00.744Z,99785.59
2022-08-10T09:21:16.214Z,99779.34
2022-08-10T09:26:25.074Z,99779.50
2022-08-10T09:31:39.284Z,99780.22
2022-08-10T09:36:57.235Z,99782.59
2022-08-10T09:42:14.874Z,99777.41
2022-08-10T09:47:59.959Z,99789.47
2022-08-10T09:53:12.266Z,99786.34
2022-08-10T09:58:37.418Z,99778.06
2022-08-10T10:03:55.454Z,99776.94
2022-08-10T10:09:12.249Z,99771.50
2022-08-10T10:14:28.664Z,99772.78
2022-08-10T10:19:52.159Z,99771.00
2022-08-10T10:25:20.601Z,99759.59
2022-08-10T10:30:35.489Z,99757.31
2022-08-10T10:35:53.264Z,99745.69
2022-08-10T10:41:12.443Z,99749.72
2022-08-10T10:46:35.594Z,99745.13
2022-08-10T10:51:46.548Z,99733.59
2022-08-10T10:57:09.468Z,99744.94
2022-08-10T11:02:32.637Z,99740.22
2022-08-10T11:07:50.162Z,99732.06
2022-08-10T11:14:25.776Z,99721.44
2022-08-10T11:18:59.538Z,99716.16
2022-08-10T11:24:49.103Z,99709.19
2022-08-10T11:29:51.174Z,99701.47
2022-08-10T11:35:11.751Z,99705.72
2022-08-10T11:40:24.877Z,99702.97
2022-08-10T11:45:36.901Z,99697.41
2022-08-10T11:50:52.851Z,99706.25
2022-08-10T11:56:01.311Z,99708.66
2022-08-10T12:01:20.599Z,99700.41
2022-08-10T12:06:54.090Z,99701.19
2022-08-10T12:11:56.474Z,99694.19
2022-08-10T12:17:10.340Z,99699.16
2022-08-10T12:22:22.150Z,99694.53
2022-08-10T12:27:34.228Z,99682.03
2022-08-10T12:32:46.612Z,99674.63
2022-08-10T12:38:04.772Z,99688.44
2022-08-10T12:44:04.346Z,99669.63
2022-08-10T12:48:53.322Z,99673.59
2022-08-10T12:54:10.822Z,99653.94
2022-08-10T12:59:16.881Z,99653.41
2022-08-10T13:04:42.729Z,99636.19
2022-08-10T13:09:55.878Z,99625.44
2022-08-10T13:15:45.694Z,99620.16
2022-08-10T13:20:45.441Z,99615.25
2022-08-10T13:25:54.501Z,99614.16
2022-08-10T13:31:02.233Z,99612.22
2022-08-10T13:36:12.732Z,99616.81
2022-08-10T13:41:27.581Z,99620.75
2022-08-10T13:46:34.297Z,99621.50
2022-08-10T13:51:56.753Z,99618.78
2022-08-10T13:57:03.475Z,99609.44
2022-08-10T14:02:09.620Z,99605.09
2022-08-10T14:07:22.732Z,99598.88
2022-08-10T14:12:34.972Z,99605.13
2022-08-10T14:17:45.017Z,99600.41
2022-08-10T14:23:02.473Z,99589.47
2022-08-10T14:28:09.379Z,99587.19
2022-08-10T14:33:26.768Z,99588.69
2022-08-10T14:38:41.404Z,99582.47
2022-08-10T14:43:58.166Z,99571.16
2022-08-10T14:49:25.308Z,99568.44
2022-08-10T14:54:36.945Z,99561.38
2022-08-10T15:00:22.463Z,99567.28
2022-08-10T15:05:39.893Z,99552.50
2022-08-10T15:10:51.418Z,99541.97
2022-08-10T15:16:12.092Z,99545.81
2022-08-10T15:21:24.713Z,99542.41
2022-08-10T15:26:38.572Z,99531.88
2022-08-10T15:32:09.366Z,99539.09
2022-08-10T15:37:40.484Z,99534.63
2022-08-10T15:42:58.378Z,99532.34
2022-08-10T15:48:08.673Z,99538.63
2022-08-10T15:53:19.304Z,99530.38
2022-08-10T15:58:40.122Z,99538.38
2022-08-10T16:03:54.693Z,99529.41
2022-08-10T16:10:26.537Z,99523.56
2022-08-10T16:14:41.714Z,99529.81
2022-08-10T16:19:56.252Z,99519.28
2022-08-10T16:25:18.234Z,99518.47
2022-08-10T16:30:26.149Z,99513.81
2022-08-10T16:35:36.745Z,99509.50
2022-08-10T16:40:43.981Z,99511.47
2022-08-10T16:45:58.260Z,99504.47
2022-08-10T16:51:05.720Z,99500.16
2022-08-10T16:56:14.994Z,99496.50
2022-08-10T17:01:32.980Z,99486.31
2022-08-10T17:06:46.941Z,99491.53
2022-08-10T17:11:56.629Z,99487.66
2022-08-10T17:17:09.191Z,99488.44
2022-08-10T17:22:17.762Z,99486.53
2022-08-10T17:28:04.598Z,99492.75
2022-08-10T17:32:59.380Z,99492.34
2022-08-10T17:38:09.479Z,99497.38
2022-08-10T17:43:58.237Z,99495.75
2022-08-10T17:48:45.224Z,99493.38
2022-08-10T17:53:54.038Z,99493.78
2022-08-10T17:59:09.737Z,99492.97
2022-08-10T18:04:23.986Z,99498.66
2022-08-10T18:09:35.277Z,99498.66
2022-08-10T18:14:41.432Z,99502.09
2022-08-10T18:19:55.809Z,99502.38
2022-08-10T18:25:02.820Z,99517.78
2022-08-10T18:30:10.308Z,99523.09
2022-08-10T18:35:20.037Z,99528.44
2022-08-10T18:40:36.004Z,99523.66
2022-08-10T18:45:46.526Z,99526.84
2022-08-10T18:50:57.524Z,99538.34
2022-08-10T18:56:16.998Z,99542.47
2022-08-10T19:01:42.059Z,99540.59
2022-08-10T19:07:11.081Z,99545.53
2022-08-10T19:12:40.753Z,99545.34
2022-08-10T19:18:06.206Z,99541.81
2022-08-10T19:23:26.397Z,99553.19
2022-08-10T19:28:38.645Z,99556.25
2022-08-10T19:33:52.945Z,99548.38
2022-08-10T19:39:29.011Z,99557.00
2022-08-10T19:44:43.767Z,99550.09
2022-08-10T19:49:57.989Z,99546.63
2022-08-10T19:55:15.377Z,99542.84
2022-08-10T20:00:27.072Z,99542.28
2022-08-10T20:05:36.367Z,99554.69
2022-08-10T20:10:52.452Z,99542.69
2022-08-10T20:16:01.634Z,99552.84
2022-08-10T20:21:14.638Z,99550.94
2022-08-10T20:26:25.769Z,99557.63
2022-08-10T20:31:41.926Z,99546.88
2022-08-10T20:36:57.855Z,99548.41
2022-08-10T20:42:11.634Z,99540.63
2022-08-10T20:47:22.511Z,99545.13
2022-08-10T20:52:28.527Z,99543.59
2022-08-10T20:57:54.124Z,99553.75
2022-08-10T21:03:32.964Z,99546.03
2022-08-10T21:08:53.049Z,99567.69
2022-08-10T21:14:14.873Z,99568.13
2022-08-10T21:19:36.036Z,99571.78
2022-08-10T21:24:47.019Z,99566.91
2022-08-10T21:30:08.958Z,99555.66
2022-08-10T21:35:37.846Z,99553.00
2022-08-10T21:41:57.720Z,99555.38
2022-08-10T21:47:38.105Z,99564.56
2022-08-10T21:53:04.206Z,99563.53
2022-08-10T21:58:27.977Z,99570.19
2022-08-10T22:03:48.060Z,99573.19
2022-08-10T22:09:17.991Z,99573.56
2022-08-10T22:14:41.246Z,99571.19
2022-08-10T22:20:07.218Z,99578.97
2022-08-10T22:25:42.274Z,99567.91
2022-08-10T22:37:06.311Z,99572.41
2022-08-10T22:42:32.613Z,99574.47
2022-08-10T22:48:14.178Z,99577.22
2022-08-10T22:53:47.898Z,99578.66
2022-08-10T22:58:52.836Z,99570.78
2022-08-10T23:03:59.253Z,99573.91
2022-08-10T23:09:09.496Z,99573.19
2022-08-10T23:14:18.524Z,99575.97
2022-08-10T23:19:24.773Z,99576.75
2022-08-10T23:24:37.984Z,99568.06
2022-08-10T23:30:09.523Z,99566.25
2022-08-10T23:36:32.443Z,99567.97
2022-08-10T23:40:48.077Z,99569.16
2022-08-10T23:45:56.527Z,99569.13
2022-08-10T23:51:16.051Z,99569.50
2022-08-10T23:56:27.836Z,99564.97
